sensor_id;sensor_type;location;lat;lon;timestamp;P1;durP1;ratioP1;P2;durP2;ratioP2
36233;SDS011;43467;50.890;5.982;2024-02-26T00:02:14;2.45;;;1.55;;
36233;SDS011;43467;50.890;5.982;2024-02-26T00:04:39;2.78;;;1.50;;
36233;SDS011;43467;50.890;5.982;2024-02-26T00:07:05;4.57;;;1.70;;
36233;SDS011;43467;50.890;5.982;2024-02-26T00:09:30;2.55;;;1.73;;
36233;SDS011;43467;50.890;5.982;2024-02-26T00:11:56;4.32;;;1.95;;
36233;SDS011;43467;50.890;5.982;2024-02-26T00:14:22;3.20;;;1.50;;
36233;SDS011;43467;50.890;5.982;2024-02-26T00:16:48;5.25;;;1.60;;
36233;SDS011;43467;50.890;5.982;2024-02-26T00:19:13;3.03;;;1.80;;
36233;SDS011;43467;50.890;5.982;2024-02-26T00:21:42;3.03;;;1.60;;
36233;SDS011;43467;50.890;5.982;2024-02-26T00:24:07;4.63;;;1.80;;
36233;SDS011;43467;50.890;5.982;2024-02-26T00:26:33;1.50;;;1.35;;
36233;SDS011;43467;50.890;5.982;2024-02-26T00:28:59;4.70;;;1.52;;
36233;SDS011;43467;50.890;5.982;2024-02-26T00:31:24;4.70;;;1.60;;
36233;SDS011;43467;50.890;5.982;2024-02-26T00:33:50;2.42;;;1.60;;
36233;SDS011;43467;50.890;5.982;2024-02-26T00:36:15;3.78;;;1.50;;
36233;SDS011;43467;50.890;5.982;2024-02-26T00:38:41;2.00;;;1.45;;
36233;SDS011;43467;50.890;5.982;2024-02-26T00:41:07;4.05;;;2.13;;
36233;SDS011;43467;50.890;5.982;2024-02-26T00:43:33;3.10;;;1.75;;
36233;SDS011;43467;50.890;5.982;2024-02-26T00:45:58;2.38;;;1.50;;
36233;SDS011;43467;50.890;5.982;2024-02-26T00:48:24;6.90;;;2.20;;
36233;SDS011;43467;50.890;5.982;2024-02-26T00:50:50;4.30;;;1.63;;
36233;SDS011;43467;50.890;5.982;2024-02-26T00:53:16;3.35;;;1.80;;
36233;SDS011;43467;50.890;5.982;2024-02-26T00:55:42;3.42;;;1.50;;
36233;SDS011;43467;50.890;5.982;2024-02-26T00:58:07;3.97;;;1.70;;
36233;SDS011;43467;50.890;5.982;2024-02-26T01:00:32;4.05;;;1.48;;
36233;SDS011;43467;50.890;5.982;2024-02-26T01:02:58;3.70;;;1.83;;
36233;SDS011;43467;50.890;5.982;2024-02-26T01:05:24;2.25;;;1.30;;
36233;SDS011;43467;50.890;5.982;2024-02-26T01:07:50;2.47;;;1.33;;
36233;SDS011;43467;50.890;5.982;2024-02-26T01:10:16;2.53;;;1.50;;
36233;SDS011;43467;50.890;5.982;2024-02-26T01:12:41;4.10;;;1.67;;
36233;SDS011;43467;50.890;5.982;2024-02-26T01:15:07;3.95;;;1.58;;
36233;SDS011;43467;50.890;5.982;2024-02-26T01:17:33;1.73;;;1.33;;
36233;SDS011;43467;50.890;5.982;2024-02-26T01:19:58;3.58;;;1.60;;
36233;SDS011;43467;50.890;5.982;2024-02-26T01:22:24;4.00;;;1.50;;
36233;SDS011;43467;50.890;5.982;2024-02-26T01:24:49;2.33;;;1.10;;
36233;SDS011;43467;50.890;5.982;2024-02-26T01:27:15;2.65;;;1.95;;
36233;SDS011;43467;50.890;5.982;2024-02-26T01:29:41;2.10;;;1.27;;
36233;SDS011;43467;50.890;5.982;2024-02-26T01:32:06;3.65;;;1.70;;
36233;SDS011;43467;50.890;5.982;2024-02-26T01:34:32;2.15;;;1.40;;
36233;SDS011;43467;50.890;5.982;2024-02-26T01:36:57;3.05;;;1.70;;
36233;SDS011;43467;50.890;5.982;2024-02-26T01:39:23;3.97;;;1.52;;
36233;SDS011;43467;50.890;5.982;2024-02-26T01:41:48;1.67;;;1.20;;
36233;SDS011;43467;50.890;5.982;2024-02-26T01:44:14;2.60;;;1.00;;
36233;SDS011;43467;50.890;5.982;2024-02-26T01:46:39;2.08;;;1.42;;
36233;SDS011;43467;50.890;5.982;2024-02-26T01:49:05;2.33;;;1.40;;
36233;SDS011;43467;50.890;5.982;2024-02-26T01:51:34;2.88;;;1.30;;
36233;SDS011;43467;50.890;5.982;2024-02-26T01:54:00;3.22;;;1.25;;
36233;SDS011;43467;50.890;5.982;2024-02-26T01:56:28;2.45;;;1.58;;
36233;SDS011;43467;50.890;5.982;2024-02-26T01:58:57;2.15;;;1.27;;
36233;SDS011;43467;50.890;5.982;2024-02-26T02:01:24;3.88;;;1.38;;
36233;SDS011;43467;50.890;5.982;2024-02-26T02:03:52;2.50;;;1.48;;
36233;SDS011;43467;50.890;5.982;2024-02-26T02:06:18;1.73;;;1.33;;
36233;SDS011;43467;50.890;5.982;2024-02-26T02:08:44;3.28;;;1.25;;
36233;SDS011;43467;50.890;5.982;2024-02-26T02:11:09;1.58;;;1.20;;
36233;SDS011;43467;50.890;5.982;2024-02-26T02:13:37;5.03;;;1.50;;
36233;SDS011;43467;50.890;5.982;2024-02-26T02:16:02;4.88;;;1.30;;
36233;SDS011;43467;50.890;5.982;2024-02-26T02:18:28;2.67;;;1.20;;
36233;SDS011;43467;50.890;5.982;2024-02-26T02:20:54;2.90;;;1.60;;
36233;SDS011;43467;50.890;5.982;2024-02-26T02:23:21;3.75;;;1.40;;
36233;SDS011;43467;50.890;5.982;2024-02-26T02:25:46;1.90;;;1.33;;
36233;SDS011;43467;50.890;5.982;2024-02-26T02:28:12;3.55;;;1.65;;
36233;SDS011;43467;50.890;5.982;2024-02-26T02:30:38;3.22;;;1.25;;
36233;SDS011;43467;50.890;5.982;2024-02-26T02:33:05;1.73;;;1.35;;
36233;SDS011;43467;50.890;5.982;2024-02-26T02:35:31;6.00;;;1.70;;
36233;SDS011;43467;50.890;5.982;2024-02-26T02:37:56;2.65;;;1.52;;
36233;SDS011;43467;50.890;5.982;2024-02-26T02:40:22;3.00;;;1.35;;
36233;SDS011;43467;50.890;5.982;2024-02-26T02:42:48;2.33;;;1.35;;
36233;SDS011;43467;50.890;5.982;2024-02-26T02:45:13;2.00;;;1.20;;
36233;SDS011;43467;50.890;5.982;2024-02-26T02:47:38;2.35;;;1.40;;
36233;SDS011;43467;50.890;5.982;2024-02-26T02:50:04;2.58;;;1.20;;
36233;SDS011;43467;50.890;5.982;2024-02-26T02:52:30;1.38;;;1.08;;
36233;SDS011;43467;50.890;5.982;2024-02-26T02:54:56;2.40;;;1.45;;
36233;SDS011;43467;50.890;5.982;2024-02-26T02:57:21;4.10;;;1.30;;
36233;SDS011;43467;50.890;5.982;2024-02-26T02:59:47;2.53;;;1.30;;
36233;SDS011;43467;50.890;5.982;2024-02-26T03:02:12;2.20;;;1.77;;
36233;SDS011;43467;50.890;5.982;2024-02-26T03:04:38;3.85;;;1.50;;
36233;SDS011;43467;50.890;5.982;2024-02-26T03:07:03;1.60;;;1.40;;
36233;SDS011;43467;50.890;5.982;2024-02-26T03:09:29;2.60;;;1.20;;
36233;SDS011;43467;50.890;5.982;2024-02-26T03:11:54;2.55;;;1.50;;
36233;SDS011;43467;50.890;5.982;2024-02-26T03:14:19;3.25;;;1.13;;
36233;SDS011;43467;50.890;5.982;2024-02-26T03:16:45;2.25;;;1.70;;
36233;SDS011;43467;50.890;5.982;2024-02-26T03:19:10;1.67;;;1.20;;
36233;SDS011;43467;50.890;5.982;2024-02-26T03:21:35;1.75;;;1.30;;
36233;SDS011;43467;50.890;5.982;2024-02-26T03:24:01;1.67;;;1.38;;
36233;SDS011;43467;50.890;5.982;2024-02-26T03:26:26;4.07;;;1.42;;
36233;SDS011;43467;50.890;5.982;2024-02-26T03:28:52;2.28;;;1.10;;
36233;SDS011;43467;50.890;5.982;2024-02-26T03:31:18;1.95;;;1.50;;
36233;SDS011;43467;50.890;5.982;2024-02-26T03:33:44;2.42;;;1.60;;
36233;SDS011;43467;50.890;5.982;2024-02-26T03:36:09;2.50;;;1.60;;
36233;SDS011;43467;50.890;5.982;2024-02-26T03:38:34;5.88;;;1.88;;
36233;SDS011;43467;50.890;5.982;2024-02-26T03:41:00;1.77;;;1.45;;
36233;SDS011;43467;50.890;5.982;2024-02-26T03:43:25;1.88;;;1.45;;
36233;SDS011;43467;50.890;5.982;2024-02-26T03:45:51;2.03;;;1.40;;
36233;SDS011;43467;50.890;5.982;2024-02-26T03:48:16;2.03;;;1.40;;
36233;SDS011;43467;50.890;5.982;2024-02-26T03:50:42;2.17;;;1.50;;
36233;SDS011;43467;50.890;5.982;2024-02-26T03:53:07;2.25;;;1.60;;
36233;SDS011;43467;50.890;5.982;2024-02-26T03:55:34;3.00;;;1.50;;
36233;SDS011;43467;50.890;5.982;2024-02-26T03:58:00;2.42;;;1.40;;
36233;SDS011;43467;50.890;5.982;2024-02-26T04:00:25;3.35;;;1.58;;
36233;SDS011;43467;50.890;5.982;2024-02-26T04:02:51;3.05;;;1.65;;
36233;SDS011;43467;50.890;5.982;2024-02-26T04:05:16;2.28;;;1.55;;
36233;SDS011;43467;50.890;5.982;2024-02-26T04:07:42;2.42;;;1.33;;
36233;SDS011;43467;50.890;5.982;2024-02-26T04:10:10;2.78;;;1.48;;
36233;SDS011;43467;50.890;5.982;2024-02-26T04:12:40;2.13;;;1.55;;
36233;SDS011;43467;50.890;5.982;2024-02-26T04:15:09;2.88;;;1.38;;
36233;SDS011;43467;50.890;5.982;2024-02-26T04:17:35;3.78;;;1.50;;
36233;SDS011;43467;50.890;5.982;2024-02-26T04:20:01;3.53;;;1.70;;
36233;SDS011;43467;50.890;5.982;2024-02-26T04:22:27;2.85;;;1.58;;
36233;SDS011;43467;50.890;5.982;2024-02-26T04:24:53;3.55;;;1.48;;
36233;SDS011;43467;50.890;5.982;2024-02-26T04:27:18;2.60;;;1.45;;
36233;SDS011;43467;50.890;5.982;2024-02-26T04:29:44;2.08;;;1.40;;
36233;SDS011;43467;50.890;5.982;2024-02-26T04:32:09;2.20;;;1.30;;
36233;SDS011;43467;50.890;5.982;2024-02-26T04:34:34;2.30;;;1.45;;
36233;SDS011;43467;50.890;5.982;2024-02-26T04:37:00;2.30;;;1.50;;
36233;SDS011;43467;50.890;5.982;2024-02-26T04:39:26;3.80;;;1.70;;
36233;SDS011;43467;50.890;5.982;2024-02-26T04:41:51;3.90;;;1.50;;
36233;SDS011;43467;50.890;5.982;2024-02-26T04:44:16;2.40;;;1.55;;
36233;SDS011;43467;50.890;5.982;2024-02-26T04:46:42;1.95;;;1.40;;
36233;SDS011;43467;50.890;5.982;2024-02-26T04:49:07;2.65;;;1.20;;
36233;SDS011;43467;50.890;5.982;2024-02-26T04:51:33;3.15;;;1.25;;
36233;SDS011;43467;50.890;5.982;2024-02-26T04:53:58;1.92;;;1.40;;
36233;SDS011;43467;50.890;5.982;2024-02-26T04:56:24;3.80;;;1.70;;
36233;SDS011;43467;50.890;5.982;2024-02-26T04:58:50;4.10;;;1.35;;
36233;SDS011;43467;50.890;5.982;2024-02-26T05:01:15;2.65;;;1.42;;
36233;SDS011;43467;50.890;5.982;2024-02-26T05:03:41;2.45;;;1.20;;
36233;SDS011;43467;50.890;5.982;2024-02-26T05:06:07;2.08;;;1.40;;
36233;SDS011;43467;50.890;5.982;2024-02-26T05:08:34;2.55;;;1.35;;
36233;SDS011;43467;50.890;5.982;2024-02-26T05:11:00;1.40;;;1.20;;
36233;SDS011;43467;50.890;5.982;2024-02-26T05:13:27;2.15;;;1.60;;
36233;SDS011;43467;50.890;5.982;2024-02-26T05:15:53;1.55;;;1.35;;
36233;SDS011;43467;50.890;5.982;2024-02-26T05:18:18;3.78;;;1.35;;
36233;SDS011;43467;50.890;5.982;2024-02-26T05:20:44;1.27;;;1.00;;
36233;SDS011;43467;50.890;5.982;2024-02-26T05:23:09;3.20;;;1.65;;
36233;SDS011;43467;50.890;5.982;2024-02-26T05:25:35;2.42;;;1.30;;
36233;SDS011;43467;50.890;5.982;2024-02-26T05:28:00;2.03;;;1.52;;
36233;SDS011;43467;50.890;5.982;2024-02-26T05:30:26;2.45;;;1.50;;
36233;SDS011;43467;50.890;5.982;2024-02-26T05:32:54;1.80;;;1.40;;
36233;SDS011;43467;50.890;5.982;2024-02-26T05:35:19;4.32;;;1.88;;
36233;SDS011;43467;50.890;5.982;2024-02-26T05:37:45;2.08;;;1.38;;
36233;SDS011;43467;50.890;5.982;2024-02-26T05:40:10;4.30;;;1.42;;
36233;SDS011;43467;50.890;5.982;2024-02-26T05:42:36;1.45;;;1.30;;
36233;SDS011;43467;50.890;5.982;2024-02-26T05:45:02;1.20;;;1.10;;
36233;SDS011;43467;50.890;5.982;2024-02-26T05:47:34;3.97;;;1.25;;
36233;SDS011;43467;50.890;5.982;2024-02-26T05:50:00;2.67;;;1.08;;
36233;SDS011;43467;50.890;5.982;2024-02-26T05:52:26;3.95;;;1.30;;
36233;SDS011;43467;50.890;5.982;2024-02-26T05:54:53;2.78;;;1.40;;
36233;SDS011;43467;50.890;5.982;2024-02-26T05:57:18;1.45;;;1.10;;
36233;SDS011;43467;50.890;5.982;2024-02-26T05:59:44;1.63;;;1.25;;
36233;SDS011;43467;50.890;5.982;2024-02-26T06:02:09;1.33;;;1.23;;
36233;SDS011;43467;50.890;5.982;2024-02-26T06:04:35;2.75;;;1.40;;
36233;SDS011;43467;50.890;5.982;2024-02-26T06:07:00;1.92;;;1.27;;
36233;SDS011;43467;50.890;5.982;2024-02-26T06:09:25;1.55;;;1.30;;
36233;SDS011;43467;50.890;5.982;2024-02-26T06:11:51;4.00;;;1.98;;
36233;SDS011;43467;50.890;5.982;2024-02-26T06:14:16;1.92;;;1.60;;
36233;SDS011;43467;50.890;5.982;2024-02-26T06:19:18;2.58;;;1.48;;
36233;SDS011;43467;50.890;5.982;2024-02-26T06:21:44;5.40;;;1.88;;
36233;SDS011;43467;50.890;5.982;2024-02-26T06:24:09;4.45;;;2.25;;
36233;SDS011;43467;50.890;5.982;2024-02-26T06:26:34;2.83;;;1.85;;
36233;SDS011;43467;50.890;5.982;2024-02-26T06:29:00;1.98;;;1.77;;
36233;SDS011;43467;50.890;5.982;2024-02-26T06:31:25;2.63;;;2.00;;
36233;SDS011;43467;50.890;5.982;2024-02-26T06:33:52;2.75;;;1.80;;
36233;SDS011;43467;50.890;5.982;2024-02-26T06:36:19;3.67;;;2.13;;
36233;SDS011;43467;50.890;5.982;2024-02-26T06:38:44;3.30;;;2.40;;
36233;SDS011;43467;50.890;5.982;2024-02-26T06:41:10;2.95;;;2.08;;
36233;SDS011;43467;50.890;5.982;2024-02-26T06:43:36;1.95;;;1.40;;
36233;SDS011;43467;50.890;5.982;2024-02-26T06:46:02;5.18;;;1.73;;
36233;SDS011;43467;50.890;5.982;2024-02-26T06:48:27;3.63;;;1.70;;
36233;SDS011;43467;50.890;5.982;2024-02-26T06:50:52;2.70;;;1.50;;
36233;SDS011;43467;50.890;5.982;2024-02-26T06:53:18;2.60;;;2.15;;
36233;SDS011;43467;50.890;5.982;2024-02-26T06:55:44;2.63;;;1.85;;
36233;SDS011;43467;50.890;5.982;2024-02-26T06:58:09;2.38;;;1.80;;
36233;SDS011;43467;50.890;5.982;2024-02-26T07:00:35;3.05;;;1.80;;
36233;SDS011;43467;50.890;5.982;2024-02-26T07:03:00;3.42;;;2.03;;
36233;SDS011;43467;50.890;5.982;2024-02-26T07:05:26;4.78;;;2.30;;
36233;SDS011;43467;50.890;5.982;2024-02-26T07:07:52;3.33;;;2.17;;
36233;SDS011;43467;50.890;5.982;2024-02-26T07:10:18;2.88;;;2.10;;
36233;SDS011;43467;50.890;5.982;2024-02-26T07:12:43;3.97;;;2.80;;
36233;SDS011;43467;50.890;5.982;2024-02-26T07:15:09;2.83;;;2.13;;
36233;SDS011;43467;50.890;5.982;2024-02-26T07:17:35;2.92;;;2.28;;
36233;SDS011;43467;50.890;5.982;2024-02-26T07:20:01;4.32;;;2.70;;
36233;SDS011;43467;50.890;5.982;2024-02-26T07:22:29;2.63;;;2.38;;
36233;SDS011;43467;50.890;5.982;2024-02-26T07:24:55;3.15;;;2.13;;
36233;SDS011;43467;50.890;5.982;2024-02-26T07:27:20;7.45;;;3.25;;
36233;SDS011;43467;50.890;5.982;2024-02-26T07:29:46;4.90;;;2.83;;
36233;SDS011;43467;50.890;5.982;2024-02-26T07:32:11;4.32;;;2.42;;
36233;SDS011;43467;50.890;5.982;2024-02-26T07:34:37;4.93;;;2.70;;
36233;SDS011;43467;50.890;5.982;2024-02-26T07:37:06;2.95;;;2.53;;
36233;SDS011;43467;50.890;5.982;2024-02-26T07:39:32;3.65;;;3.10;;
36233;SDS011;43467;50.890;5.982;2024-02-26T07:41:57;5.47;;;3.45;;
36233;SDS011;43467;50.890;5.982;2024-02-26T07:44:23;3.85;;;2.80;;
36233;SDS011;43467;50.890;5.982;2024-02-26T07:46:48;3.97;;;3.15;;
36233;SDS011;43467;50.890;5.982;2024-02-26T07:49:13;3.50;;;2.90;;
36233;SDS011;43467;50.890;5.982;2024-02-26T07:51:39;3.70;;;3.25;;
36233;SDS011;43467;50.890;5.982;2024-02-26T07:54:04;3.78;;;2.88;;
36233;SDS011;43467;50.890;5.982;2024-02-26T07:56:30;5.07;;;3.50;;
36233;SDS011;43467;50.890;5.982;2024-02-26T07:58:55;5.38;;;3.03;;
36233;SDS011;43467;50.890;5.982;2024-02-26T08:01:20;4.00;;;3.60;;
36233;SDS011;43467;50.890;5.982;2024-02-26T08:03:46;4.97;;;3.33;;
36233;SDS011;43467;50.890;5.982;2024-02-26T08:06:11;3.58;;;3.28;;
36233;SDS011;43467;50.890;5.982;2024-02-26T08:08:37;4.60;;;3.50;;
36233;SDS011;43467;50.890;5.982;2024-02-26T08:11:03;4.53;;;3.35;;
36233;SDS011;43467;50.890;5.982;2024-02-26T08:13:28;3.90;;;3.35;;
36233;SDS011;43467;50.890;5.982;2024-02-26T08:15:54;6.07;;;3.63;;
36233;SDS011;43467;50.890;5.982;2024-02-26T08:18:20;4.80;;;3.45;;
36233;SDS011;43467;50.890;5.982;2024-02-26T08:20:45;4.13;;;3.38;;
36233;SDS011;43467;50.890;5.982;2024-02-26T08:23:11;5.75;;;3.88;;
36233;SDS011;43467;50.890;5.982;2024-02-26T08:25:36;4.00;;;3.33;;
36233;SDS011;43467;50.890;5.982;2024-02-26T08:28:02;19.20;;;5.20;;
36233;SDS011;43467;50.890;5.982;2024-02-26T08:30:28;6.35;;;3.70;;
36233;SDS011;43467;50.890;5.982;2024-02-26T08:32:53;3.50;;;3.03;;
36233;SDS011;43467;50.890;5.982;2024-02-26T08:35:19;4.97;;;3.47;;
36233;SDS011;43467;50.890;5.982;2024-02-26T08:37:45;5.68;;;3.60;;
36233;SDS011;43467;50.890;5.982;2024-02-26T08:40:12;7.57;;;4.20;;
36233;SDS011;43467;50.890;5.982;2024-02-26T08:42:37;4.65;;;3.22;;
36233;SDS011;43467;50.890;5.982;2024-02-26T08:45:02;4.47;;;3.60;;
36233;SDS011;43467;50.890;5.982;2024-02-26T08:47:28;5.15;;;3.53;;
36233;SDS011;43467;50.890;5.982;2024-02-26T08:49:54;5.13;;;3.40;;
36233;SDS011;43467;50.890;5.982;2024-02-26T08:52:19;6.95;;;4.50;;
36233;SDS011;43467;50.890;5.982;2024-02-26T08:54:46;6.80;;;4.70;;
36233;SDS011;43467;50.890;5.982;2024-02-26T08:57:12;7.30;;;4.47;;
36233;SDS011;43467;50.890;5.982;2024-02-26T08:59:37;5.47;;;4.13;;
36233;SDS011;43467;50.890;5.982;2024-02-26T09:02:03;7.30;;;5.20;;
36233;SDS011;43467;50.890;5.982;2024-02-26T09:04:28;4.85;;;3.80;;
36233;SDS011;43467;50.890;5.982;2024-02-26T09:06:53;5.78;;;4.03;;
36233;SDS011;43467;50.890;5.982;2024-02-26T09:09:19;5.00;;;3.35;;
36233;SDS011;43467;50.890;5.982;2024-02-26T09:11:47;4.72;;;3.33;;
36233;SDS011;43467;50.890;5.982;2024-02-26T09:14:13;7.22;;;3.40;;
36233;SDS011;43467;50.890;5.982;2024-02-26T09:16:38;3.80;;;3.42;;
36233;SDS011;43467;50.890;5.982;2024-02-26T09:19:04;3.58;;;3.25;;
36233;SDS011;43467;50.890;5.982;2024-02-26T09:21:29;4.55;;;3.47;;
36233;SDS011;43467;50.890;5.982;2024-02-26T09:23:55;3.95;;;2.80;;
36233;SDS011;43467;50.890;5.982;2024-02-26T09:26:21;4.07;;;3.35;;
36233;SDS011;43467;50.890;5.982;2024-02-26T09:28:46;5.30;;;3.42;;
36233;SDS011;43467;50.890;5.982;2024-02-26T09:31:12;4.57;;;3.20;;
36233;SDS011;43467;50.890;5.982;2024-02-26T09:33:37;5.82;;;3.15;;
36233;SDS011;43467;50.890;5.982;2024-02-26T09:36:03;3.03;;;2.65;;
36233;SDS011;43467;50.890;5.982;2024-02-26T09:38:29;3.13;;;2.83;;
36233;SDS011;43467;50.890;5.982;2024-02-26T09:40:58;4.57;;;2.60;;
36233;SDS011;43467;50.890;5.982;2024-02-26T09:43:24;3.03;;;2.60;;
36233;SDS011;43467;50.890;5.982;2024-02-26T09:45:58;2.97;;;2.50;;
36233;SDS011;43467;50.890;5.982;2024-02-26T09:48:24;4.53;;;2.42;;
36233;SDS011;43467;50.890;5.982;2024-02-26T09:50:50;3.38;;;2.58;;
36233;SDS011;43467;50.890;5.982;2024-02-26T09:53:15;4.38;;;3.05;;
36233;SDS011;43467;50.890;5.982;2024-02-26T09:55:43;3.28;;;2.38;;
36233;SDS011;43467;50.890;5.982;2024-02-26T09:58:08;3.20;;;2.63;;
36233;SDS011;43467;50.890;5.982;2024-02-26T10:00:37;3.83;;;2.92;;
36233;SDS011;43467;50.890;5.982;2024-02-26T10:03:04;3.83;;;2.85;;
36233;SDS011;43467;50.890;5.982;2024-02-26T10:05:34;3.35;;;2.53;;
36233;SDS011;43467;50.890;5.982;2024-02-26T10:08:02;3.20;;;2.85;;
36233;SDS011;43467;50.890;5.982;2024-02-26T10:10:29;4.80;;;2.40;;
36233;SDS011;43467;50.890;5.982;2024-02-26T10:12:56;3.35;;;2.83;;
36233;SDS011;43467;50.890;5.982;2024-02-26T10:15:22;2.65;;;2.22;;
36233;SDS011;43467;50.890;5.982;2024-02-26T10:17:48;3.15;;;2.40;;
36233;SDS011;43467;50.890;5.982;2024-02-26T10:20:14;3.88;;;2.42;;
36233;SDS011;43467;50.890;5.982;2024-02-26T10:22:41;2.65;;;2.35;;
36233;SDS011;43467;50.890;5.982;2024-02-26T10:25:07;2.80;;;2.30;;
36233;SDS011;43467;50.890;5.982;2024-02-26T10:27:33;3.83;;;2.40;;
36233;SDS011;43467;50.890;5.982;2024-02-26T10:30:02;2.80;;;2.33;;
36233;SDS011;43467;50.890;5.982;2024-02-26T10:32:28;5.82;;;2.00;;
36233;SDS011;43467;50.890;5.982;2024-02-26T10:34:57;2.03;;;1.77;;
36233;SDS011;43467;50.890;5.982;2024-02-26T10:37:22;3.45;;;2.05;;
36233;SDS011;43467;50.890;5.982;2024-02-26T10:39:48;3.97;;;1.88;;
36233;SDS011;43467;50.890;5.982;2024-02-26T10:42:14;2.78;;;1.70;;
36233;SDS011;43467;50.890;5.982;2024-02-26T10:44:40;3.35;;;1.92;;
36233;SDS011;43467;50.890;5.982;2024-02-26T10:47:07;2.60;;;2.17;;
36233;SDS011;43467;50.890;5.982;2024-02-26T10:49:33;2.13;;;1.70;;
36233;SDS011;43467;50.890;5.982;2024-02-26T10:52:00;4.20;;;1.80;;
36233;SDS011;43467;50.890;5.982;2024-02-26T10:54:26;3.38;;;1.70;;
36233;SDS011;43467;50.890;5.982;2024-02-26T10:56:54;2.45;;;1.77;;
36233;SDS011;43467;50.890;5.982;2024-02-26T10:59:22;3.03;;;1.70;;
36233;SDS011;43467;50.890;5.982;2024-02-26T11:01:47;3.72;;;2.10;;
36233;SDS011;43467;50.890;5.982;2024-02-26T11:04:14;2.22;;;1.65;;
36233;SDS011;43467;50.890;5.982;2024-02-26T11:06:42;1.58;;;1.30;;
36233;SDS011;43467;50.890;5.982;2024-02-26T11:09:08;2.38;;;1.63;;
36233;SDS011;43467;50.890;5.982;2024-02-26T11:11:38;2.70;;;1.88;;
36233;SDS011;43467;50.890;5.982;2024-02-26T11:14:05;1.85;;;1.60;;
36233;SDS011;43467;50.890;5.982;2024-02-26T11:16:33;3.95;;;1.83;;
36233;SDS011;43467;50.890;5.982;2024-02-26T11:19:00;2.30;;;2.05;;
36233;SDS011;43467;50.890;5.982;2024-02-26T11:21:27;2.08;;;1.80;;
36233;SDS011;43467;50.890;5.982;2024-02-26T11:24:03;3.58;;;2.20;;
36233;SDS011;43467;50.890;5.982;2024-02-26T11:26:30;2.60;;;2.00;;
36233;SDS011;43467;50.890;5.982;2024-02-26T11:28:56;3.45;;;2.38;;
36233;SDS011;43467;50.890;5.982;2024-02-26T11:31:24;2.92;;;1.98;;
36233;SDS011;43467;50.890;5.982;2024-02-26T11:33:53;5.63;;;2.47;;
36233;SDS011;43467;50.890;5.982;2024-02-26T11:36:19;2.35;;;1.95;;
36233;SDS011;43467;50.890;5.982;2024-02-26T11:38:46;2.55;;;1.90;;
36233;SDS011;43467;50.890;5.982;2024-02-26T11:41:14;1.63;;;1.40;;
36233;SDS011;43467;50.890;5.982;2024-02-26T11:43:57;2.20;;;2.00;;
36233;SDS011;43467;50.890;5.982;2024-02-26T11:46:28;1.95;;;1.70;;
36233;SDS011;43467;50.890;5.982;2024-02-26T11:49:42;1.40;;;1.25;;
36233;SDS011;43467;50.890;5.982;2024-02-26T11:51:51;1.63;;;1.45;;
36233;SDS011;43467;50.890;5.982;2024-02-26T11:59:54;3.72;;;2.00;;
36233;SDS011;43467;50.890;5.982;2024-02-26T12:02:47;3.10;;;2.35;;
36233;SDS011;43467;50.890;5.982;2024-02-26T12:05:20;5.13;;;3.40;;
36233;SDS011;43467;50.890;5.982;2024-02-26T12:08:03;4.15;;;2.45;;
36233;SDS011;43467;50.890;5.982;2024-02-26T12:10:32;3.17;;;2.58;;
36233;SDS011;43467;50.890;5.982;2024-02-26T12:15:37;5.75;;;2.60;;
36233;SDS011;43467;50.890;5.982;2024-02-26T12:18:04;4.03;;;2.72;;
36233;SDS011;43467;50.890;5.982;2024-02-26T12:20:32;3.95;;;2.72;;
36233;SDS011;43467;50.890;5.982;2024-02-26T12:22:58;4.05;;;3.33;;
36233;SDS011;43467;50.890;5.982;2024-02-26T12:25:25;3.67;;;2.63;;
36233;SDS011;43467;50.890;5.982;2024-02-26T12:27:52;5.20;;;2.97;;
36233;SDS011;43467;50.890;5.982;2024-02-26T12:30:18;4.28;;;2.50;;
36233;SDS011;43467;50.890;5.982;2024-02-26T12:32:44;6.60;;;3.40;;
36233;SDS011;43467;50.890;5.982;2024-02-26T12:35:10;4.07;;;2.50;;
36233;SDS011;43467;50.890;5.982;2024-02-26T12:37:35;5.90;;;3.15;;
36233;SDS011;43467;50.890;5.982;2024-02-26T12:40:03;17.63;;;5.65;;
36233;SDS011;43467;50.890;5.982;2024-02-26T12:42:32;26.65;;;6.38;;
36233;SDS011;43467;50.890;5.982;2024-02-26T12:45:04;6.50;;;3.47;;
36233;SDS011;43467;50.890;5.982;2024-02-26T12:50:10;6.32;;;3.60;;
36233;SDS011;43467;50.890;5.982;2024-02-26T12:52:40;3.95;;;2.95;;
36233;SDS011;43467;50.890;5.982;2024-02-26T12:55:07;6.07;;;3.80;;
36233;SDS011;43467;50.890;5.982;2024-02-26T12:57:37;4.63;;;3.10;;
36233;SDS011;43467;50.890;5.982;2024-02-26T13:00:04;7.55;;;3.70;;
36233;SDS011;43467;50.890;5.982;2024-02-26T13:02:34;6.28;;;3.85;;
36233;SDS011;43467;50.890;5.982;2024-02-26T13:05:01;6.72;;;4.05;;
36233;SDS011;43467;50.890;5.982;2024-02-26T13:07:28;8.52;;;4.07;;
36233;SDS011;43467;50.890;5.982;2024-02-26T13:09:53;6.53;;;3.90;;
36233;SDS011;43467;50.890;5.982;2024-02-26T13:12:20;5.22;;;4.13;;
36233;SDS011;43467;50.890;5.982;2024-02-26T13:14:45;6.55;;;4.25;;
36233;SDS011;43467;50.890;5.982;2024-02-26T13:17:11;5.63;;;3.80;;
36233;SDS011;43467;50.890;5.982;2024-02-26T13:19:37;4.97;;;4.00;;
36233;SDS011;43467;50.890;5.982;2024-02-26T13:22:05;4.68;;;3.80;;
36233;SDS011;43467;50.890;5.982;2024-02-26T13:24:35;5.85;;;4.25;;
36233;SDS011;43467;50.890;5.982;2024-02-26T13:27:01;5.90;;;4.07;;
36233;SDS011;43467;50.890;5.982;2024-02-26T13:29:30;6.07;;;4.38;;
36233;SDS011;43467;50.890;5.982;2024-02-26T13:31:58;6.30;;;4.90;;
36233;SDS011;43467;50.890;5.982;2024-02-26T13:34:24;4.60;;;4.07;;
36233;SDS011;43467;50.890;5.982;2024-02-26T13:36:56;5.95;;;4.40;;
36233;SDS011;43467;50.890;5.982;2024-02-26T13:39:23;5.88;;;4.28;;
36233;SDS011;43467;50.890;5.982;2024-02-26T13:41:50;5.97;;;4.53;;
36233;SDS011;43467;50.890;5.982;2024-02-26T13:44:19;6.30;;;4.82;;
36233;SDS011;43467;50.890;5.982;2024-02-26T13:46:45;7.65;;;5.53;;
36233;SDS011;43467;50.890;5.982;2024-02-26T13:49:11;7.57;;;5.18;;
36233;SDS011;43467;50.890;5.982;2024-02-26T13:51:36;6.68;;;4.90;;
36233;SDS011;43467;50.890;5.982;2024-02-26T13:54:03;6.97;;;5.30;;
36233;SDS011;43467;50.890;5.982;2024-02-26T13:56:29;7.40;;;5.43;;
36233;SDS011;43467;50.890;5.982;2024-02-26T13:58:55;12.35;;;6.93;;
36233;SDS011;43467;50.890;5.982;2024-02-26T14:01:21;9.40;;;6.18;;
36233;SDS011;43467;50.890;5.982;2024-02-26T14:03:46;9.90;;;6.80;;
36233;SDS011;43467;50.890;5.982;2024-02-26T14:06:11;10.00;;;6.95;;
36233;SDS011;43467;50.890;5.982;2024-02-26T14:08:37;10.90;;;7.13;;
36233;SDS011;43467;50.890;5.982;2024-02-26T14:11:03;9.30;;;6.53;;
36233;SDS011;43467;50.890;5.982;2024-02-26T14:13:28;11.55;;;7.53;;
36233;SDS011;43467;50.890;5.982;2024-02-26T14:15:54;13.73;;;8.10;;
36233;SDS011;43467;50.890;5.982;2024-02-26T14:18:19;11.77;;;7.82;;
36233;SDS011;43467;50.890;5.982;2024-02-26T14:20:45;13.02;;;8.00;;
36233;SDS011;43467;50.890;5.982;2024-02-26T14:23:10;13.70;;;8.38;;
36233;SDS011;43467;50.890;5.982;2024-02-26T14:25:36;14.75;;;9.45;;
36233;SDS011;43467;50.890;5.982;2024-02-26T14:28:02;16.80;;;9.55;;
36233;SDS011;43467;50.890;5.982;2024-02-26T14:30:28;11.90;;;8.05;;
36233;SDS011;43467;50.890;5.982;2024-02-26T14:32:54;14.13;;;9.23;;
36233;SDS011;43467;50.890;5.982;2024-02-26T14:35:19;16.52;;;9.50;;
36233;SDS011;43467;50.890;5.982;2024-02-26T14:37:45;11.98;;;8.68;;
36233;SDS011;43467;50.890;5.982;2024-02-26T14:40:14;13.82;;;9.02;;
36233;SDS011;43467;50.890;5.982;2024-02-26T14:42:40;13.35;;;8.55;;
36233;SDS011;43467;50.890;5.982;2024-02-26T14:45:06;15.88;;;9.60;;
36233;SDS011;43467;50.890;5.982;2024-02-26T14:47:34;14.85;;;9.90;;
36233;SDS011;43467;50.890;5.982;2024-02-26T14:50:00;13.48;;;9.48;;
36233;SDS011;43467;50.890;5.982;2024-02-26T14:52:25;13.07;;;9.93;;
36233;SDS011;43467;50.890;5.982;2024-02-26T14:54:51;15.88;;;10.90;;